sensor_id;sensor_type;location;lat;lon;timestamp;P1;durP1;ratioP1;P2;durP2;ratioP2
43841;SDS011;29495;49.970;20.842;2022-09-09T00:01:20;5.40;;;4.90;;
43841;SDS011;29495;49.970;20.842;2022-09-09T00:04:05;4.75;;;4.35;;
43841;SDS011;29495;49.970;20.842;2022-09-09T00:10:39;11.35;;;8.20;;
43841;SDS011;29495;49.970;20.842;2022-09-09T00:12:39;10.75;;;7.53;;
43841;SDS011;29495;49.970;20.842;2022-09-09T00:15:19;7.32;;;5.88;;
43841;SDS011;29495;49.970;20.842;2022-09-09T00:17:53;6.80;;;5.40;;
43841;SDS011;29495;49.970;20.842;2022-09-09T00:20:32;5.25;;;4.50;;
43841;SDS011;29495;49.970;20.842;2022-09-09T00:23:28;5.45;;;4.47;;
43841;SDS011;29495;49.970;20.842;2022-09-09T00:28:31;4.53;;;4.13;;
43841;SDS011;29495;49.970;20.842;2022-09-09T00:31:20;4.82;;;4.32;;
43841;SDS011;29495;49.970;20.842;2022-09-09T00:33:51;4.63;;;4.22;;
43841;SDS011;29495;49.970;20.842;2022-09-09T00:36:23;5.05;;;4.45;;
43841;SDS011;29495;49.970;20.842;2022-09-09T00:38:57;4.32;;;3.80;;
43841;SDS011;29495;49.970;20.842;2022-09-09T00:44:18;4.22;;;3.88;;
43841;SDS011;29495;49.970;20.842;2022-09-09T00:55:48;5.07;;;4.57;;
43841;SDS011;29495;49.970;20.842;2022-09-09T00:58:30;4.40;;;4.00;;
43841;SDS011;29495;49.970;20.842;2022-09-09T01:01:10;4.82;;;4.35;;
43841;SDS011;29495;49.970;20.842;2022-09-09T01:03:54;4.47;;;4.07;;
43841;SDS011;29495;49.970;20.842;2022-09-09T01:06:32;4.47;;;3.92;;
43841;SDS011;29495;49.970;20.842;2022-09-09T01:12:09;4.30;;;3.90;;
43841;SDS011;29495;49.970;20.842;2022-09-09T01:23:10;5.22;;;4.40;;
43841;SDS011;29495;49.970;20.842;2022-09-09T01:26:13;5.15;;;4.65;;
43841;SDS011;29495;49.970;20.842;2022-09-09T01:28:45;6.40;;;5.65;;
43841;SDS011;29495;49.970;20.842;2022-09-09T01:31:17;4.65;;;4.25;;
43841;SDS011;29495;49.970;20.842;2022-09-09T01:33:47;4.82;;;4.30;;
43841;SDS011;29495;49.970;20.842;2022-09-09T01:36:15;6.47;;;4.82;;
43841;SDS011;29495;49.970;20.842;2022-09-09T01:38:51;4.88;;;4.38;;
43841;SDS011;29495;49.970;20.842;2022-09-09T01:41:18;4.55;;;4.15;;
43841;SDS011;29495;49.970;20.842;2022-09-09T01:44:20;5.43;;;4.50;;
43841;SDS011;29495;49.970;20.842;2022-09-09T01:46:47;4.55;;;4.15;;
43841;SDS011;29495;49.970;20.842;2022-09-09T01:49:18;4.85;;;4.32;;
43841;SDS011;29495;49.970;20.842;2022-09-09T01:51:45;7.38;;;4.70;;
43841;SDS011;29495;49.970;20.842;2022-09-09T01:54:15;5.38;;;4.47;;
43841;SDS011;29495;49.970;20.842;2022-09-09T02:05:07;3.92;;;3.53;;
43841;SDS011;29495;49.970;20.842;2022-09-09T02:10:30;6.22;;;5.28;;
43841;SDS011;29495;49.970;20.842;2022-09-09T02:13:14;5.68;;;5.13;;
43841;SDS011;29495;49.970;20.842;2022-09-09T02:15:45;5.20;;;4.57;;
43841;SDS011;29495;49.970;20.842;2022-09-09T02:19:15;4.53;;;4.05;;
43841;SDS011;29495;49.970;20.842;2022-09-09T02:21:32;7.03;;;5.07;;
43841;SDS011;29495;49.970;20.842;2022-09-09T02:24:02;5.38;;;4.45;;
43841;SDS011;29495;49.970;20.842;2022-09-09T02:26:33;5.85;;;4.75;;
43841;SDS011;29495;49.970;20.842;2022-09-09T02:29:05;7.15;;;4.57;;
43841;SDS011;29495;49.970;20.842;2022-09-09T02:31:36;6.20;;;5.30;;
43841;SDS011;29495;49.970;20.842;2022-09-09T02:34:10;5.40;;;4.38;;
43841;SDS011;29495;49.970;20.842;2022-09-09T02:36:38;6.30;;;4.93;;
43841;SDS011;29495;49.970;20.842;2022-09-09T02:39:08;4.30;;;3.90;;
43841;SDS011;29495;49.970;20.842;2022-09-09T02:41:37;6.45;;;4.20;;
43841;SDS011;29495;49.970;20.842;2022-09-09T02:44:09;4.93;;;4.43;;
43841;SDS011;29495;49.970;20.842;2022-09-09T02:52:38;7.13;;;4.15;;
43841;SDS011;29495;49.970;20.842;2022-09-09T02:55:17;4.82;;;4.32;;
43841;SDS011;29495;49.970;20.842;2022-09-09T02:58:07;4.70;;;4.30;;
43841;SDS011;29495;49.970;20.842;2022-09-09T03:00:37;5.80;;;4.68;;
43841;SDS011;29495;49.970;20.842;2022-09-09T03:03:06;6.68;;;5.20;;
43841;SDS011;29495;49.970;20.842;2022-09-09T03:05:34;7.47;;;6.10;;
43841;SDS011;29495;49.970;20.842;2022-09-09T03:08:01;5.63;;;4.55;;
43841;SDS011;29495;49.970;20.842;2022-09-09T03:10:28;6.10;;;5.50;;
43841;SDS011;29495;49.970;20.842;2022-09-09T03:12:54;6.22;;;4.95;;
43841;SDS011;29495;49.970;20.842;2022-09-09T03:15:21;8.15;;;5.72;;
43841;SDS011;29495;49.970;20.842;2022-09-09T03:17:47;6.25;;;5.18;;
43841;SDS011;29495;49.970;20.842;2022-09-09T03:20:13;6.72;;;5.72;;
43841;SDS011;29495;49.970;20.842;2022-09-09T03:22:39;8.85;;;6.18;;
43841;SDS011;29495;49.970;20.842;2022-09-09T03:25:05;7.13;;;5.68;;
43841;SDS011;29495;49.970;20.842;2022-09-09T03:27:34;6.90;;;4.95;;
43841;SDS011;29495;49.970;20.842;2022-09-09T03:30:02;5.97;;;4.47;;
43841;SDS011;29495;49.970;20.842;2022-09-09T03:32:29;5.88;;;4.25;;
43841;SDS011;29495;49.970;20.842;2022-09-09T03:34:57;4.68;;;3.30;;
43841;SDS011;29495;49.970;20.842;2022-09-09T03:37:23;4.60;;;4.15;;
43841;SDS011;29495;49.970;20.842;2022-09-09T03:39:50;4.13;;;3.63;;
43841;SDS011;29495;49.970;20.842;2022-09-09T03:42:17;6.15;;;4.95;;
43841;SDS011;29495;49.970;20.842;2022-09-09T03:44:48;4.13;;;3.72;;
43841;SDS011;29495;49.970;20.842;2022-09-09T03:47:20;5.13;;;4.47;;
43841;SDS011;29495;49.970;20.842;2022-09-09T03:49:48;3.78;;;3.30;;
43841;SDS011;29495;49.970;20.842;2022-09-09T03:52:14;4.95;;;4.43;;
43841;SDS011;29495;49.970;20.842;2022-09-09T03:54:41;5.30;;;4.18;;
43841;SDS011;29495;49.970;20.842;2022-09-09T03:57:08;4.80;;;4.07;;
43841;SDS011;29495;49.970;20.842;2022-09-09T03:59:35;4.50;;;3.67;;
43841;SDS011;29495;49.970;20.842;2022-09-09T04:02:03;6.38;;;4.63;;
43841;SDS011;29495;49.970;20.842;2022-09-09T04:04:29;5.47;;;3.90;;
43841;SDS011;29495;49.970;20.842;2022-09-09T04:06:55;5.18;;;4.05;;
43841;SDS011;29495;49.970;20.842;2022-09-09T04:09:22;5.75;;;4.45;;
43841;SDS011;29495;49.970;20.842;2022-09-09T04:11:50;5.03;;;4.00;;
43841;SDS011;29495;49.970;20.842;2022-09-09T04:14:16;5.20;;;4.15;;
43841;SDS011;29495;49.970;20.842;2022-09-09T04:16:43;4.65;;;3.65;;
43841;SDS011;29495;49.970;20.842;2022-09-09T04:19:11;3.72;;;3.35;;
43841;SDS011;29495;49.970;20.842;2022-09-09T04:21:42;3.90;;;3.50;;
43841;SDS011;29495;49.970;20.842;2022-09-09T04:26:35;6.63;;;4.78;;
43841;SDS011;29495;49.970;20.842;2022-09-09T04:29:05;5.93;;;5.32;;
43841;SDS011;29495;49.970;20.842;2022-09-09T04:31:33;5.22;;;4.05;;
43841;SDS011;29495;49.970;20.842;2022-09-09T04:34:00;5.68;;;4.47;;
43841;SDS011;29495;49.970;20.842;2022-09-09T04:36:34;5.13;;;4.00;;
43841;SDS011;29495;49.970;20.842;2022-09-09T04:39:03;5.07;;;4.20;;
43841;SDS011;29495;49.970;20.842;2022-09-09T04:41:29;4.45;;;3.38;;
43841;SDS011;29495;49.970;20.842;2022-09-09T04:43:56;4.53;;;3.88;;
43841;SDS011;29495;49.970;20.842;2022-09-09T04:46:23;5.28;;;3.67;;
43841;SDS011;29495;49.970;20.842;2022-09-09T04:48:50;4.30;;;3.90;;
43841;SDS011;29495;49.970;20.842;2022-09-09T04:51:17;4.55;;;4.03;;
43841;SDS011;29495;49.970;20.842;2022-09-09T04:53:46;3.55;;;3.25;;
43841;SDS011;29495;49.970;20.842;2022-09-09T04:56:16;4.00;;;3.42;;
43841;SDS011;29495;49.970;20.842;2022-09-09T04:58:50;4.32;;;3.92;;
43841;SDS011;29495;49.970;20.842;2022-09-09T05:01:17;5.22;;;3.50;;
43841;SDS011;29495;49.970;20.842;2022-09-09T05:03:48;3.80;;;3.40;;
43841;SDS011;29495;49.970;20.842;2022-09-09T05:06:19;4.53;;;3.50;;
43841;SDS011;29495;49.970;20.842;2022-09-09T05:08:49;4.18;;;3.45;;
43841;SDS011;29495;49.970;20.842;2022-09-09T05:13:51;3.30;;;3.00;;
43841;SDS011;29495;49.970;20.842;2022-09-09T05:16:18;4.60;;;3.55;;
43841;SDS011;29495;49.970;20.842;2022-09-09T05:18:45;4.13;;;3.72;;
43841;SDS011;29495;49.970;20.842;2022-09-09T05:21:12;4.05;;;3.65;;
43841;SDS011;29495;49.970;20.842;2022-09-09T05:23:39;3.83;;;3.25;;
43841;SDS011;29495;49.970;20.842;2022-09-09T05:26:06;5.25;;;4.05;;
43841;SDS011;29495;49.970;20.842;2022-09-09T05:28:35;4.15;;;3.72;;
43841;SDS011;29495;49.970;20.842;2022-09-09T05:31:05;4.25;;;3.67;;
43841;SDS011;29495;49.970;20.842;2022-09-09T05:33:39;4.57;;;3.60;;
43841;SDS011;29495;49.970;20.842;2022-09-09T05:36:07;3.85;;;3.30;;
43841;SDS011;29495;49.970;20.842;2022-09-09T05:38:36;3.38;;;3.00;;
43841;SDS011;29495;49.970;20.842;2022-09-09T05:41:03;4.35;;;2.90;;
43841;SDS011;29495;49.970;20.842;2022-09-09T05:43:30;3.25;;;2.72;;
43841;SDS011;29495;49.970;20.842;2022-09-09T05:45:59;2.67;;;2.42;;
43841;SDS011;29495;49.970;20.842;2022-09-09T05:48:30;3.22;;;2.50;;
43841;SDS011;29495;49.970;20.842;2022-09-09T05:50:58;3.10;;;2.20;;
43841;SDS011;29495;49.970;20.842;2022-09-09T05:53:28;3.17;;;2.05;;
43841;SDS011;29495;49.970;20.842;2022-09-09T05:56:06;2.25;;;2.05;;
43841;SDS011;29495;49.970;20.842;2022-09-09T05:58:36;5.00;;;2.13;;
43841;SDS011;29495;49.970;20.842;2022-09-09T06:01:12;3.00;;;2.17;;
43841;SDS011;29495;49.970;20.842;2022-09-09T06:03:41;2.28;;;1.90;;
43841;SDS011;29495;49.970;20.842;2022-09-09T06:06:09;3.80;;;2.70;;
43841;SDS011;29495;49.970;20.842;2022-09-09T06:08:38;1.98;;;1.67;;
43841;SDS011;29495;49.970;20.842;2022-09-09T06:11:13;3.60;;;2.30;;
43841;SDS011;29495;49.970;20.842;2022-09-09T06:13:41;3.50;;;2.28;;
43841;SDS011;29495;49.970;20.842;2022-09-09T06:16:08;2.80;;;2.15;;
43841;SDS011;29495;49.970;20.842;2022-09-09T06:18:40;3.63;;;2.10;;
43841;SDS011;29495;49.970;20.842;2022-09-09T06:21:09;2.58;;;1.88;;
43841;SDS011;29495;49.970;20.842;2022-09-09T06:23:40;1.80;;;1.33;;
43841;SDS011;29495;49.970;20.842;2022-09-09T06:26:08;2.35;;;1.80;;
43841;SDS011;29495;49.970;20.842;2022-09-09T06:28:39;1.90;;;1.45;;
43841;SDS011;29495;49.970;20.842;2022-09-09T06:31:08;2.43;;;1.70;;
43841;SDS011;29495;49.970;20.842;2022-09-09T06:33:36;2.03;;;1.83;;
43841;SDS011;29495;49.970;20.842;2022-09-09T06:36:07;1.77;;;1.50;;
43841;SDS011;29495;49.970;20.842;2022-09-09T06:38:41;3.30;;;2.45;;
43841;SDS011;29495;49.970;20.842;2022-09-09T06:41:09;2.03;;;1.47;;
43841;SDS011;29495;49.970;20.842;2022-09-09T06:43:37;3.05;;;2.67;;
43841;SDS011;29495;49.970;20.842;2022-09-09T06:46:06;2.30;;;1.90;;
43841;SDS011;29495;49.970;20.842;2022-09-09T06:48:35;6.43;;;2.65;;
43841;SDS011;29495;49.970;20.842;2022-09-09T06:51:09;5.00;;;2.92;;
43841;SDS011;29495;49.970;20.842;2022-09-09T06:53:38;2.85;;;2.53;;
43841;SDS011;29495;49.970;20.842;2022-09-09T06:58:56;4.65;;;2.10;;
43841;SDS011;29495;49.970;20.842;2022-09-09T07:01:28;1.92;;;1.60;;
43841;SDS011;29495;49.970;20.842;2022-09-09T07:03:58;4.70;;;2.25;;
43841;SDS011;29495;49.970;20.842;2022-09-09T07:06:26;4.78;;;2.17;;
43841;SDS011;29495;49.970;20.842;2022-09-09T07:08:58;2.75;;;2.42;;
43841;SDS011;29495;49.970;20.842;2022-09-09T07:11:28;3.75;;;3.03;;
43841;SDS011;29495;49.970;20.842;2022-09-09T07:13:57;5.97;;;3.50;;
43841;SDS011;29495;49.970;20.842;2022-09-09T07:16:24;4.05;;;2.80;;
43841;SDS011;29495;49.970;20.842;2022-09-09T07:18:54;2.80;;;2.50;;
43841;SDS011;29495;49.970;20.842;2022-09-09T07:21:23;3.78;;;2.75;;
43841;SDS011;29495;49.970;20.842;2022-09-09T07:23:52;3.88;;;3.17;;
43841;SDS011;29495;49.970;20.842;2022-09-09T07:26:19;3.38;;;2.70;;
43841;SDS011;29495;49.970;20.842;2022-09-09T07:28:47;4.90;;;2.85;;
43841;SDS011;29495;49.970;20.842;2022-09-09T07:31:14;3.88;;;2.92;;
43841;SDS011;29495;49.970;20.842;2022-09-09T07:33:43;3.92;;;3.33;;
43841;SDS011;29495;49.970;20.842;2022-09-09T07:36:14;3.42;;;2.47;;
43841;SDS011;29495;49.970;20.842;2022-09-09T07:38:47;1.90;;;1.80;;
43841;SDS011;29495;49.970;20.842;2022-09-09T07:41:18;2.38;;;2.17;;
43841;SDS011;29495;49.970;20.842;2022-09-09T07:43:47;3.05;;;1.95;;
43841;SDS011;29495;49.970;20.842;2022-09-09T07:46:15;2.38;;;2.00;;
43841;SDS011;29495;49.970;20.842;2022-09-09T07:48:48;2.72;;;1.80;;
43841;SDS011;29495;49.970;20.842;2022-09-09T07:51:18;2.90;;;2.20;;
43841;SDS011;29495;49.970;20.842;2022-09-09T07:53:53;7.53;;;2.20;;
43841;SDS011;29495;49.970;20.842;2022-09-09T07:56:22;2.45;;;2.25;;
43841;SDS011;29495;49.970;20.842;2022-09-09T07:58:50;2.70;;;1.90;;
43841;SDS011;29495;49.970;20.842;2022-09-09T08:01:18;4.47;;;1.98;;
43841;SDS011;29495;49.970;20.842;2022-09-09T08:03:47;3.83;;;2.03;;
43841;SDS011;29495;49.970;20.842;2022-09-09T08:06:19;3.28;;;2.47;;
43841;SDS011;29495;49.970;20.842;2022-09-09T08:08:45;2.60;;;2.03;;
43841;SDS011;29495;49.970;20.842;2022-09-09T08:11:16;3.15;;;2.08;;
43841;SDS011;29495;49.970;20.842;2022-09-09T08:13:43;2.30;;;2.10;;
43841;SDS011;29495;49.970;20.842;2022-09-09T08:16:22;2.35;;;2.03;;
43841;SDS011;29495;49.970;20.842;2022-09-09T08:18:51;2.50;;;2.30;;
43841;SDS011;29495;49.970;20.842;2022-09-09T08:21:19;2.72;;;2.08;;
43841;SDS011;29495;49.970;20.842;2022-09-09T08:23:47;2.63;;;2.10;;
43841;SDS011;29495;49.970;20.842;2022-09-09T08:26:21;2.20;;;2.00;;
43841;SDS011;29495;49.970;20.842;2022-09-09T08:28:49;2.55;;;2.35;;
43841;SDS011;29495;49.970;20.842;2022-09-09T08:33:48;2.58;;;2.00;;
43841;SDS011;29495;49.970;20.842;2022-09-09T08:36:15;2.47;;;1.52;;
43841;SDS011;29495;49.970;20.842;2022-09-09T08:38:43;2.42;;;1.73;;
43841;SDS011;29495;49.970;20.842;2022-09-09T08:44:17;2.70;;;1.75;;
43841;SDS011;29495;49.970;20.842;2022-09-09T08:52:28;1.48;;;1.38;;
43841;SDS011;29495;49.970;20.842;2022-09-09T08:54:59;1.92;;;1.20;;
43841;SDS011;29495;49.970;20.842;2022-09-09T08:57:38;2.10;;;1.30;;
43841;SDS011;29495;49.970;20.842;2022-09-09T09:00:04;2.50;;;1.38;;
43841;SDS011;29495;49.970;20.842;2022-09-09T09:05:37;1.77;;;1.60;;
43841;SDS011;29495;49.970;20.842;2022-09-09T09:08:32;1.65;;;1.50;;
43841;SDS011;29495;49.970;20.842;2022-09-09T09:11:08;1.73;;;1.33;;
43841;SDS011;29495;49.970;20.842;2022-09-09T09:16:13;2.55;;;1.50;;
43841;SDS011;29495;49.970;20.842;2022-09-09T09:18:50;2.38;;;1.70;;
43841;SDS011;29495;49.970;20.842;2022-09-09T09:21:25;2.15;;;1.73;;
43841;SDS011;29495;49.970;20.842;2022-09-09T09:23:56;2.38;;;1.67;;
43841;SDS011;29495;49.970;20.842;2022-09-09T09:26:34;2.00;;;1.85;;
43841;SDS011;29495;49.970;20.842;2022-09-09T09:29:10;1.92;;;1.80;;
43841;SDS011;29495;49.970;20.842;2022-09-09T09:31:55;2.38;;;1.65;;
43841;SDS011;29495;49.970;20.842;2022-09-09T09:34:27;1.67;;;1.58;;
43841;SDS011;29495;49.970;20.842;2022-09-09T09:36:56;3.50;;;1.95;;
43841;SDS011;29495;49.970;20.842;2022-09-09T09:39:28;1.85;;;1.40;;
43841;SDS011;29495;49.970;20.842;2022-09-09T09:41:58;1.63;;;1.42;;
43841;SDS011;29495;49.970;20.842;2022-09-09T09:44:44;2.25;;;1.90;;
43841;SDS011;29495;49.970;20.842;2022-09-09T09:47:18;2.78;;;1.65;;
43841;SDS011;29495;49.970;20.842;2022-09-09T09:49:56;3.38;;;2.00;;
43841;SDS011;29495;49.970;20.842;2022-09-09T09:52:26;3.88;;;2.03;;
43841;SDS011;29495;49.970;20.842;2022-09-09T09:57:26;1.50;;;1.40;;
43841;SDS011;29495;49.970;20.842;2022-09-09T10:00:15;2.85;;;1.77;;
43841;SDS011;29495;49.970;20.842;2022-09-09T10:02:50;1.40;;;1.30;;
43841;SDS011;29495;49.970;20.842;2022-09-09T10:05:22;1.45;;;1.30;;
43841;SDS011;29495;49.970;20.842;2022-09-09T10:08:02;1.83;;;1.60;;
43841;SDS011;29495;49.970;20.842;2022-09-09T10:30:57;2.08;;;1.45;;
43841;SDS011;29495;49.970;20.842;2022-09-09T10:36:48;1.10;;;1.00;;
43841;SDS011;29495;49.970;20.842;2022-09-09T10:47:05;1.67;;;1.25;;
43841;SDS011;29495;49.970;20.842;2022-09-09T10:55:39;1.70;;;1.20;;
43841;SDS011;29495;49.970;20.842;2022-09-09T10:58:10;2.35;;;0.98;;
43841;SDS011;29495;49.970;20.842;2022-09-09T11:01:05;1.48;;;1.30;;
43841;SDS011;29495;49.970;20.842;2022-09-09T11:03:52;1.33;;;1.10;;
43841;SDS011;29495;49.970;20.842;2022-09-09T11:06:27;1.50;;;1.15;;
43841;SDS011;29495;49.970;20.842;2022-09-09T11:08:58;1.40;;;1.02;;
43841;SDS011;29495;49.970;20.842;2022-09-09T11:11:30;6.88;;;4.28;;
43841;SDS011;29495;49.970;20.842;2022-09-09T11:17:00;6.25;;;3.80;;
43841;SDS011;29495;49.970;20.842;2022-09-09T11:19:36;3.67;;;3.05;;
43841;SDS011;29495;49.970;20.842;2022-09-09T11:41:38;1.70;;;1.55;;
43841;SDS011;29495;49.970;20.842;2022-09-09T11:44:18;2.72;;;2.00;;
43841;SDS011;29495;49.970;20.842;2022-09-09T11:46:54;1.85;;;1.65;;
43841;SDS011;29495;49.970;20.842;2022-09-09T11:53:02;1.60;;;1.48;;
43841;SDS011;29495;49.970;20.842;2022-09-09T11:55:29;1.33;;;1.23;;
43841;SDS011;29495;49.970;20.842;2022-09-09T11:58:05;1.33;;;1.10;;
43841;SDS011;29495;49.970;20.842;2022-09-09T12:00:46;1.30;;;1.20;;
43841;SDS011;29495;49.970;20.842;2022-09-09T12:06:27;2.72;;;1.30;;
43841;SDS011;29495;49.970;20.842;2022-09-09T12:09:16;0.97;;;0.97;;
43841;SDS011;29495;49.970;20.842;2022-09-09T12:14:56;0.55;;;0.50;;
43841;SDS011;29495;49.970;20.842;2022-09-09T12:17:29;1.25;;;0.90;;
43841;SDS011;29495;49.970;20.842;2022-09-09T12:22:37;0.80;;;0.80;;
43841;SDS011;29495;49.970;20.842;2022-09-09T12:28:11;1.05;;;1.00;;
43841;SDS011;29495;49.970;20.842;2022-09-09T12:31:05;0.70;;;0.70;;
43841;SDS011;29495;49.970;20.842;2022-09-09T12:33:43;0.90;;;0.70;;
43841;SDS011;29495;49.970;20.842;2022-09-09T12:36:17;1.07;;;0.87;;
43841;SDS011;29495;49.970;20.842;2022-09-09T12:38:46;1.15;;;0.80;;
43841;SDS011;29495;49.970;20.842;2022-09-09T12:41:22;0.63;;;0.60;;
43841;SDS011;29495;49.970;20.842;2022-09-09T12:43:49;0.73;;;0.70;;
43841;SDS011;29495;49.970;20.842;2022-09-09T12:46:59;0.93;;;0.70;;
43841;SDS011;29495;49.970;20.842;2022-09-09T12:52:03;0.75;;;0.68;;
43841;SDS011;29495;49.970;20.842;2022-09-09T12:54:51;1.30;;;1.08;;
43841;SDS011;29495;49.970;20.842;2022-09-09T12:57:19;0.73;;;0.70;;
43841;SDS011;29495;49.970;20.842;2022-09-09T12:59:48;0.93;;;0.73;;
43841;SDS011;29495;49.970;20.842;2022-09-09T13:04:44;0.73;;;0.73;;
43841;SDS011;29495;49.970;20.842;2022-09-09T13:07:12;2.13;;;0.73;;
43841;SDS011;29495;49.970;20.842;2022-09-09T13:09:39;1.13;;;0.95;;
43841;SDS011;29495;49.970;20.842;2022-09-09T13:12:06;2.00;;;1.00;;
43841;SDS011;29495;49.970;20.842;2022-09-09T13:14:38;0.90;;;0.85;;
43841;SDS011;29495;49.970;20.842;2022-09-09T13:17:05;1.23;;;0.80;;
43841;SDS011;29495;49.970;20.842;2022-09-09T13:19:34;0.70;;;0.70;;
43841;SDS011;29495;49.970;20.842;2022-09-09T13:22:19;0.68;;;0.50;;
43841;SDS011;29495;49.970;20.842;2022-09-09T13:30:22;3.90;;;0.68;;
43841;SDS011;29495;49.970;20.842;2022-09-09T13:35:46;0.88;;;0.75;;
43841;SDS011;29495;49.970;20.842;2022-09-09T13:40:51;1.02;;;0.90;;
43841;SDS011;29495;49.970;20.842;2022-09-09T13:43:23;1.75;;;0.90;;
43841;SDS011;29495;49.970;20.842;2022-09-09T13:45:58;1.02;;;0.93;;
43841;SDS011;29495;49.970;20.842;2022-09-09T13:48:26;1.02;;;0.93;;
43841;SDS011;29495;49.970;20.842;2022-09-09T13:51:03;0.88;;;0.68;;
43841;SDS011;29495;49.970;20.842;2022-09-09T13:53:30;1.13;;;0.70;;
43841;SDS011;29495;49.970;20.842;2022-09-09T13:55:57;1.08;;;0.90;;
43841;SDS011;29495;49.970;20.842;2022-09-09T13:58:27;1.52;;;1.40;;
43841;SDS011;29495;49.970;20.842;2022-09-09T14:00:54;0.70;;;0.70;;
43841;SDS011;29495;49.970;20.842;2022-09-09T14:03:20;1.20;;;0.90;;
43841;SDS011;29495;49.970;20.842;2022-09-09T14:05:47;0.95;;;0.70;;
43841;SDS011;29495;49.970;20.842;2022-09-09T14:08:15;1.08;;;0.90;;
43841;SDS011;29495;49.970;20.842;2022-09-09T14:10:47;1.58;;;0.90;;
43841;SDS011;29495;49.970;20.842;2022-09-09T14:13:13;0.75;;;0.75;;
43841;SDS011;29495;49.970;20.842;2022-09-09T14:15:40;1.13;;;0.90;;
43841;SDS011;29495;49.970;20.842;2022-09-09T14:18:09;0.65;;;0.60;;
43841;SDS011;29495;49.970;20.842;2022-09-09T14:20:37;0.80;;;0.80;;
43841;SDS011;29495;49.970;20.842;2022-09-09T14:23:03;1.13;;;0.60;;
43841;SDS011;29495;49.970;20.842;2022-09-09T14:25:30;1.02;;;0.60;;
43841;SDS011;29495;49.970;20.842;2022-09-09T14:27:56;0.60;;;0.60;;
43841;SDS011;29495;49.970;20.842;2022-09-09T14:30:22;0.65;;;0.50;;
43841;SDS011;29495;49.970;20.842;2022-09-09T14:32:48;0.80;;;0.80;;
43841;SDS011;29495;49.970;20.842;2022-09-09T14:35:14;0.98;;;0.60;;
43841;SDS011;29495;49.970;20.842;2022-09-09T14:37:42;0.40;;;0.40;;
43841;SDS011;29495;49.970;20.842;2022-09-09T14:40:08;0.90;;;0.68;;
43841;SDS011;29495;49.970;20.842;2022-09-09T14:42:35;0.68;;;0.60;;
43841;SDS011;29495;49.970;20.842;2022-09-09T14:45:01;1.65;;;0.70;;
43841;SDS011;29495;49.970;20.842;2022-09-09T14:47:27;1.02;;;0.93;;
43841;SDS011;29495;49.970;20.842;2022-09-09T14:49:54;2.00;;;0.93;;
43841;SDS011;29495;49.970;20.842;2022-09-09T14:52:21;1.02;;;0.63;;
43841;SDS011;29495;49.970;20.842;2022-09-09T14:54:47;1.17;;;1.02;;
43841;SDS011;29495;49.970;20.842;2022-09-09T14:57:13;1.05;;;0.73;;
43841;SDS011;29495;49.970;20.842;2022-09-09T14:59:39;0.80;;;0.77;;
43841;SDS011;29495;49.970;20.842;2022-09-09T15:02:05;0.95;;;0.57;;
43841;SDS011;29495;49.970;20.842;2022-09-09T15:04:31;0.63;;;0.57;;
43841;SDS011;29495;49.970;20.842;2022-09-09T15:06:57;1.77;;;0.82;;
43841;SDS011;29495;49.970;20.842;2022-09-09T15:09:24;0.80;;;0.60;;
43841;SDS011;29495;49.970;20.842;2022-09-09T15:11:50;0.70;;;0.40;;
43841;SDS011;29495;49.970;20.842;2022-09-09T15:14:16;1.27;;;0.47;;
43841;SDS011;29495;49.970;20.842;2022-09-09T15:16:42;1.10;;;0.50;;
43841;SDS011;29495;49.970;20.842;2022-09-09T15:19:08;0.60;;;0.60;;
43841;SDS011;29495;49.970;20.842;2022-09-09T15:21:35;3.03;;;0.70;;
43841;SDS011;29495;49.970;20.842;2022-09-09T15:24:02;1.33;;;0.50;;
43841;SDS011;29495;49.970;20.842;2022-09-09T15:26:28;0.70;;;0.45;;
43841;SDS011;29495;49.970;20.842;2022-09-09T15:28:55;0.60;;;0.50;;
43841;SDS011;29495;49.970;20.842;2022-09-09T15:31:28;0.90;;;0.50;;
43841;SDS011;29495;49.970;20.842;2022-09-09T15:33:56;1.55;;;0.93;;
43841;SDS011;29495;49.970;20.842;2022-09-09T15:36:30;0.60;;;0.60;;
43841;SDS011;29495;49.970;20.842;2022-09-09T15:39:00;1.10;;;0.60;;
43841;SDS011;29495;49.970;20.842;2022-09-09T15:41:27;1.10;;;0.52;;
43841;SDS011;29495;49.970;20.842;2022-09-09T15:43:54;0.85;;;0.60;;
43841;SDS011;29495;49.970;20.842;2022-09-09T15:46:32;0.93;;;0.70;;
43841;SDS011;29495;49.970;20.842;2022-09-09T15:51:41;0.50;;;0.50;;
43841;SDS011;29495;49.970;20.842;2022-09-09T15:54:09;0.93;;;0.40;;
43841;SDS011;29495;49.970;20.842;2022-09-09T15:56:37;0.50;;;0.40;;
43841;SDS011;29495;49.970;20.842;2022-09-09T15:59:03;1.67;;;0.75;;
43841;SDS011;29495;49.970;20.842;2022-09-09T16:01:30;1.10;;;0.50;;
43841;SDS011;29495;49.970;20.842;2022-09-09T16:03:57;0.73;;;0.43;;
43841;SDS011;29495;49.970;20.842;2022-09-09T16:06:25;1.10;;;0.50;;
43841;SDS011;29495;49.970;20.842;2022-09-09T16:08:53;0.60;;;0.40;;
43841;SDS011;29495;49.970;20.842;2022-09-09T16:11:29;0.98;;;0.90;;
43841;SDS011;29495;49.970;20.842;2022-09-09T16:13:57;0.60;;;0.60;;
43841;SDS011;29495;49.970;20.842;2022-09-09T16:16:24;0.60;;;0.60;;
43841;SDS011;29495;49.970;20.842;2022-09-09T16:18:53;0.57;;;0.40;;
43841;SDS011;29495;49.970;20.842;2022-09-09T16:21:22;1.48;;;0.88;;
43841;SDS011;29495;49.970;20.842;2022-09-09T16:23:54;0.75;;;0.60;;
43841;SDS011;29495;49.970;20.842;2022-09-09T16:26:21;0.80;;;0.57;;
43841;SDS011;29495;49.970;20.842;2022-09-09T16:28:48;0.70;;;0.70;;
43841;SDS011;29495;49.970;20.842;2022-09-09T16:31:18;1.25;;;0.73;;
43841;SDS011;29495;49.970;20.842;2022-09-09T16:33:47;0.50;;;0.50;;
43841;SDS011;29495;49.970;20.842;2022-09-09T16:38:52;2.28;;;0.88;;
43841;SDS011;29495;49.970;20.842;2022-09-09T16:41:20;1.13;;;0.93;;
43841;SDS011;29495;49.970;20.842;2022-09-09T16:43:47;2.45;;;0.90;;
43841;SDS011;29495;49.970;20.842;2022-09-09T16:46:17;0.88;;;0.80;;
43841;SDS011;29495;49.970;20.842;2022-09-09T16:48:45;1.15;;;0.85;;
43841;SDS011;29495;49.970;20.842;2022-09-09T16:51:14;1.42;;;0.90;;
43841;SDS011;29495;49.970;20.842;2022-09-09T16:53:48;1.92;;;1.45;;
43841;SDS011;29495;49.970;20.842;2022-09-09T16:56:16;4.00;;;2.15;;
43841;SDS011;29495;49.970;20.842;2022-09-09T16:58:48;2.17;;;1.50;;
43841;SDS011;29495;49.970;20.842;2022-09-09T17:01:19;3.03;;;1.45;;
43841;SDS011;29495;49.970;20.842;2022-09-09T17:03:45;2.85;;;1.77;;
43841;SDS011;29495;49.970;20.842;2022-09-09T17:06:12;4.45;;;2.65;;
43841;SDS011;29495;49.970;20.842;2022-09-09T17:08:39;3.30;;;2.72;;
43841;SDS011;29495;49.970;20.842;2022-09-09T17:11:13;4.32;;;2.47;;
43841;SDS011;29495;49.970;20.842;2022-09-09T17:13:41;4.30;;;3.00;;
43841;SDS011;29495;49.970;20.842;2022-09-09T17:16:08;5.57;;;3.13;;
43841;SDS011;29495;49.970;20.842;2022-09-09T17:18:35;4.90;;;2.97;;
43841;SDS011;29495;49.970;20.842;2022-09-09T17:21:02;5.30;;;3.30;;
43841;SDS011;29495;49.970;20.842;2022-09-09T17:23:34;5.72;;;3.17;;
43841;SDS011;29495;49.970;20.842;2022-09-09T17:26:04;6.50;;;3.22;;
43841;SDS011;29495;49.970;20.842;2022-09-09T17:28:33;6.85;;;3.58;;
43841;SDS011;29495;49.970;20.842;2022-09-09T17:31:00;5.78;;;3.40;;
43841;SDS011;29495;49.970;20.842;2022-09-09T17:33:32;5.03;;;3.63;;
43841;SDS011;29495;49.970;20.842;2022-09-09T17:36:00;6.68;;;3.50;;
43841;SDS011;29495;49.970;20.842;2022-09-09T17:38:28;7.07;;;3.80;;
43841;SDS011;29495;49.970;20.842;2022-09-09T17:41:02;6.40;;;4.35;;
43841;SDS011;29495;49.970;20.842;2022-09-09T17:43:32;7.30;;;3.97;;
43841;SDS011;29495;49.970;20.842;2022-09-09T17:46:05;6.00;;;3.95;;